LEZL/SVQ METAR and TAF weather

Enter ICAO airport designator
Station Type Date Time Source
LEZL METAR 2020/01/28 11:30 UTC NOAA

LEZL 281130Z VRB01KT 5000 BR SCT005 BKN030 13/12 Q1028 NOSIG


Station Type Date Time Source
LEZL Decoded METAR 2020/01/28 11:30 UTC NOAA

Sevilla / San Pablo, Spain (LEZL) 37-25N 005-54W 31M
Jan 28, 2020 - 06:30 AM EST / 2020.01.28 1130 UTC
Wind: Variable at 1 MPH (1 KT):0
Visibility: 3 mile(s):0
Sky conditions: mostly cloudy
Weather: mist
Temperature: 55 F (13 C)
Dew Point: 53 F (12 C)
Relative Humidity: 93%
Pressure (altimeter): 30.36 in. Hg (1028 hPa)
ob: LEZL 281130Z VRB01KT 5000 BR SCT005 BKN030 13/12 Q1028 NOSIG
cycle: 11

Station Type Date Time Source
LEZL TAF 2020/01/28 09:30 UTC NOAA

TAF LEZL 280800Z 2809/2909 VRB03KT 9999 SCT020 BKN040 TX17/2815Z TN10/2907Z
TEMPO 2809/2811 2000 BR BKN006 PROB40
TEMPO 2809/2810 0600 FG VV002 PROB40
TEMPO 2902/2909 3000 BR BKN008

Example: see airport list